sensor_id;sensor_type;location;lat;lon;timestamp;temperature;humidity
12839;DHT22;6486;51.034;5.262;2023-02-26T00:02:03;2.60;60.60
12839;DHT22;6486;51.034;5.262;2023-02-26T00:04:29;2.50;60.60
12839;DHT22;6486;51.034;5.262;2023-02-26T00:06:54;2.50;60.70
12839;DHT22;6486;51.034;5.262;2023-02-26T00:09:21;2.40;60.80
12839;DHT22;6486;51.034;5.262;2023-02-26T00:11:47;2.40;61.00
12839;DHT22;6486;51.034;5.262;2023-02-26T00:14:14;2.40;61.10
12839;DHT22;6486;51.034;5.262;2023-02-26T00:16:41;2.30;61.20
12839;DHT22;6486;51.034;5.262;2023-02-26T00:19:09;2.30;61.20
12839;DHT22;6486;51.034;5.262;2023-02-26T00:21:37;2.30;61.20
12839;DHT22;6486;51.034;5.262;2023-02-26T00:24:03;2.30;61.20
12839;DHT22;6486;51.034;5.262;2023-02-26T00:26:31;2.30;61.20
12839;DHT22;6486;51.034;5.262;2023-02-26T00:28:58;2.30;61.30
12839;DHT22;6486;51.034;5.262;2023-02-26T00:31:24;2.30;61.40
12839;DHT22;6486;51.034;5.262;2023-02-26T00:33:54;2.20;61.30
12839;DHT22;6486;51.034;5.262;2023-02-26T00:38:52;2.20;61.40
12839;DHT22;6486;51.034;5.262;2023-02-26T00:41:21;2.20;61.40
12839;DHT22;6486;51.034;5.262;2023-02-26T00:43:47;2.20;61.40
12839;DHT22;6486;51.034;5.262;2023-02-26T00:46:35;2.20;61.40
12839;DHT22;6486;51.034;5.262;2023-02-26T00:52:05;2.10;61.40
12839;DHT22;6486;51.034;5.262;2023-02-26T00:54:34;2.10;61.60
12839;DHT22;6486;51.034;5.262;2023-02-26T00:57:00;2.10;61.70
12839;DHT22;6486;51.034;5.262;2023-02-26T00:59:28;2.10;61.80
12839;DHT22;6486;51.034;5.262;2023-02-26T01:01:54;2.10;61.80
12839;DHT22;6486;51.034;5.262;2023-02-26T01:04:22;2.10;61.90
12839;DHT22;6486;51.034;5.262;2023-02-26T01:06:53;2.10;62.00
12839;DHT22;6486;51.034;5.262;2023-02-26T01:09:29;2.00;62.00
12839;DHT22;6486;51.034;5.262;2023-02-26T01:11:57;2.00;62.20
12839;DHT22;6486;51.034;5.262;2023-02-26T01:14:26;2.00;62.30
12839;DHT22;6486;51.034;5.262;2023-02-26T01:22:12;2.00;62.80
12839;DHT22;6486;51.034;5.262;2023-02-26T01:24:40;1.90;62.70
12839;DHT22;6486;51.034;5.262;2023-02-26T01:27:06;1.90;62.80
12839;DHT22;6486;51.034;5.262;2023-02-26T01:29:32;1.90;62.90
12839;DHT22;6486;51.034;5.262;2023-02-26T01:32:03;2.00;63.00
12839;DHT22;6486;51.034;5.262;2023-02-26T01:34:38;2.00;63.00
12839;DHT22;6486;51.034;5.262;2023-02-26T01:37:32;2.00;63.00
12839;DHT22;6486;51.034;5.262;2023-02-26T01:40:32;2.00;63.00
12839;DHT22;6486;51.034;5.262;2023-02-26T01:43:06;2.10;63.10
12839;DHT22;6486;51.034;5.262;2023-02-26T01:45:46;2.10;63.10
12839;DHT22;6486;51.034;5.262;2023-02-26T01:48:36;2.10;63.10
12839;DHT22;6486;51.034;5.262;2023-02-26T01:51:03;2.10;63.20
12839;DHT22;6486;51.034;5.262;2023-02-26T01:53:29;2.20;63.40
12839;DHT22;6486;51.034;5.262;2023-02-26T01:56:01;2.20;63.40
12839;DHT22;6486;51.034;5.262;2023-02-26T01:58:32;2.20;63.50
12839;DHT22;6486;51.034;5.262;2023-02-26T02:00:59;2.20;63.50
12839;DHT22;6486;51.034;5.262;2023-02-26T02:03:26;2.20;63.50
12839;DHT22;6486;51.034;5.262;2023-02-26T02:05:57;2.30;63.80
12839;DHT22;6486;51.034;5.262;2023-02-26T02:08:24;2.20;63.70
12839;DHT22;6486;51.034;5.262;2023-02-26T02:10:50;2.20;63.80
12839;DHT22;6486;51.034;5.262;2023-02-26T02:13:31;2.20;63.90
12839;DHT22;6486;51.034;5.262;2023-02-26T02:16:21;2.20;64.00
12839;DHT22;6486;51.034;5.262;2023-02-26T02:19:03;2.20;64.20
12839;DHT22;6486;51.034;5.262;2023-02-26T02:27:09;2.30;64.80
12839;DHT22;6486;51.034;5.262;2023-02-26T02:32:35;2.30;65.10
12839;DHT22;6486;51.034;5.262;2023-02-26T02:35:33;2.40;65.30
12839;DHT22;6486;51.034;5.262;2023-02-26T02:38:22;2.40;65.40
12839;DHT22;6486;51.034;5.262;2023-02-26T02:40:51;2.40;65.50
12839;DHT22;6486;51.034;5.262;2023-02-26T02:43:21;2.40;65.50
12839;DHT22;6486;51.034;5.262;2023-02-26T02:45:59;2.40;65.50
12839;DHT22;6486;51.034;5.262;2023-02-26T02:48:39;2.50;65.60
12839;DHT22;6486;51.034;5.262;2023-02-26T02:51:10;2.40;65.60
12839;DHT22;6486;51.034;5.262;2023-02-26T02:53:51;2.40;66.30
12839;DHT22;6486;51.034;5.262;2023-02-26T02:56:24;2.40;66.40
12839;DHT22;6486;51.034;5.262;2023-02-26T02:58:59;2.40;65.70
12839;DHT22;6486;51.034;5.262;2023-02-26T03:01:27;2.40;65.70
12839;DHT22;6486;51.034;5.262;2023-02-26T03:04:05;2.50;65.80
12839;DHT22;6486;51.034;5.262;2023-02-26T03:06:32;2.40;65.80
12839;DHT22;6486;51.034;5.262;2023-02-26T03:08:59;2.40;66.00
12839;DHT22;6486;51.034;5.262;2023-02-26T03:11:25;2.40;66.00
12839;DHT22;6486;51.034;5.262;2023-02-26T03:13:52;2.40;66.00
12839;DHT22;6486;51.034;5.262;2023-02-26T03:19:37;2.40;66.00
12839;DHT22;6486;51.034;5.262;2023-02-26T03:24:59;2.40;66.10
12839;DHT22;6486;51.034;5.262;2023-02-26T03:27:34;2.40;66.10
12839;DHT22;6486;51.034;5.262;2023-02-26T03:30:05;2.40;66.10
12839;DHT22;6486;51.034;5.262;2023-02-26T03:37:57;2.30;66.10
12839;DHT22;6486;51.034;5.262;2023-02-26T03:40:31;2.30;66.20
12839;DHT22;6486;51.034;5.262;2023-02-26T03:43:32;2.30;67.00
12839;DHT22;6486;51.034;5.262;2023-02-26T03:46:04;2.30;66.30
12839;DHT22;6486;51.034;5.262;2023-02-26T03:48:33;2.20;66.20
12839;DHT22;6486;51.034;5.262;2023-02-26T03:51:04;2.30;66.30
12839;DHT22;6486;51.034;5.262;2023-02-26T03:53:35;2.20;66.30
12839;DHT22;6486;51.034;5.262;2023-02-26T03:56:26;2.20;66.30
12839;DHT22;6486;51.034;5.262;2023-02-26T03:58:53;2.20;66.40
12839;DHT22;6486;51.034;5.262;2023-02-26T04:01:22;2.20;66.40
12839;DHT22;6486;51.034;5.262;2023-02-26T04:04:03;2.20;66.50
12839;DHT22;6486;51.034;5.262;2023-02-26T04:06:30;2.20;66.60
12839;DHT22;6486;51.034;5.262;2023-02-26T04:08:57;2.20;66.60
12839;DHT22;6486;51.034;5.262;2023-02-26T04:11:24;2.20;66.60
12839;DHT22;6486;51.034;5.262;2023-02-26T04:13:50;2.10;66.50
12839;DHT22;6486;51.034;5.262;2023-02-26T04:16:16;2.10;66.50
12839;DHT22;6486;51.034;5.262;2023-02-26T04:18:43;2.10;66.60
12839;DHT22;6486;51.034;5.262;2023-02-26T04:21:18;2.10;66.60
12839;DHT22;6486;51.034;5.262;2023-02-26T04:23:44;2.10;66.70
12839;DHT22;6486;51.034;5.262;2023-02-26T04:26:10;2.10;66.70
12839;DHT22;6486;51.034;5.262;2023-02-26T04:28:37;2.00;66.60
12839;DHT22;6486;51.034;5.262;2023-02-26T04:31:04;2.00;66.60
12839;DHT22;6486;51.034;5.262;2023-02-26T04:33:31;2.00;66.70
12839;DHT22;6486;51.034;5.262;2023-02-26T04:35:58;2.00;66.70
12839;DHT22;6486;51.034;5.262;2023-02-26T04:38:23;2.00;66.70
12839;DHT22;6486;51.034;5.262;2023-02-26T04:40:50;1.90;66.60
12839;DHT22;6486;51.034;5.262;2023-02-26T04:43:16;1.90;66.70
12839;DHT22;6486;51.034;5.262;2023-02-26T04:45:44;1.90;66.60
12839;DHT22;6486;51.034;5.262;2023-02-26T04:48:11;1.90;66.60
12839;DHT22;6486;51.034;5.262;2023-02-26T04:50:37;1.90;66.60
12839;DHT22;6486;51.034;5.262;2023-02-26T04:53:02;1.90;66.60
12839;DHT22;6486;51.034;5.262;2023-02-26T04:55:28;1.90;66.50
12839;DHT22;6486;51.034;5.262;2023-02-26T04:57:53;1.80;66.40
12839;DHT22;6486;51.034;5.262;2023-02-26T05:00:20;1.90;66.50
12839;DHT22;6486;51.034;5.262;2023-02-26T05:02:46;1.80;66.40
12839;DHT22;6486;51.034;5.262;2023-02-26T05:05:11;1.80;66.40
12839;DHT22;6486;51.034;5.262;2023-02-26T05:07:37;1.80;66.40
12839;DHT22;6486;51.034;5.262;2023-02-26T05:10:04;1.80;66.40
12839;DHT22;6486;51.034;5.262;2023-02-26T05:12:30;1.80;66.40
12839;DHT22;6486;51.034;5.262;2023-02-26T05:14:55;1.70;66.30
12839;DHT22;6486;51.034;5.262;2023-02-26T05:17:21;1.80;66.40
12839;DHT22;6486;51.034;5.262;2023-02-26T05:19:47;1.70;66.20
12839;DHT22;6486;51.034;5.262;2023-02-26T05:22:12;1.70;66.30
12839;DHT22;6486;51.034;5.262;2023-02-26T05:24:38;1.70;66.30
12839;DHT22;6486;51.034;5.262;2023-02-26T05:27:04;1.60;66.30
12839;DHT22;6486;51.034;5.262;2023-02-26T05:29:29;1.60;66.30
12839;DHT22;6486;51.034;5.262;2023-02-26T05:31:55;1.60;66.30
12839;DHT22;6486;51.034;5.262;2023-02-26T05:34:21;1.60;66.40
12839;DHT22;6486;51.034;5.262;2023-02-26T05:36:46;1.50;66.30
12839;DHT22;6486;51.034;5.262;2023-02-26T05:39:12;1.50;66.30
12839;DHT22;6486;51.034;5.262;2023-02-26T05:41:38;1.50;66.30
12839;DHT22;6486;51.034;5.262;2023-02-26T05:44:03;1.50;66.40
12839;DHT22;6486;51.034;5.262;2023-02-26T05:46:29;1.50;66.40
12839;DHT22;6486;51.034;5.262;2023-02-26T05:48:54;1.40;66.30
12839;DHT22;6486;51.034;5.262;2023-02-26T05:51:20;1.40;66.40
12839;DHT22;6486;51.034;5.262;2023-02-26T05:53:45;1.40;66.40
12839;DHT22;6486;51.034;5.262;2023-02-26T05:56:11;1.40;66.40
12839;DHT22;6486;51.034;5.262;2023-02-26T05:58:37;1.40;66.40
12839;DHT22;6486;51.034;5.262;2023-02-26T06:01:03;1.30;67.00
12839;DHT22;6486;51.034;5.262;2023-02-26T06:03:28;1.30;67.00
12839;DHT22;6486;51.034;5.262;2023-02-26T06:05:54;1.30;66.30
12839;DHT22;6486;51.034;5.262;2023-02-26T06:08:19;1.30;66.40
12839;DHT22;6486;51.034;5.262;2023-02-26T06:10:45;1.30;66.40
12839;DHT22;6486;51.034;5.262;2023-02-26T06:13:11;1.30;66.40
12839;DHT22;6486;51.034;5.262;2023-02-26T06:15:36;1.30;66.50
12839;DHT22;6486;51.034;5.262;2023-02-26T06:18:02;1.30;66.50
12839;DHT22;6486;51.034;5.262;2023-02-26T06:20:27;1.30;66.50
12839;DHT22;6486;51.034;5.262;2023-02-26T06:22:53;1.20;66.60
12839;DHT22;6486;51.034;5.262;2023-02-26T06:25:18;1.30;66.60
12839;DHT22;6486;51.034;5.262;2023-02-26T06:27:45;1.20;66.60
12839;DHT22;6486;51.034;5.262;2023-02-26T06:30:11;1.30;66.60
12839;DHT22;6486;51.034;5.262;2023-02-26T06:32:37;1.30;66.60
12839;DHT22;6486;51.034;5.262;2023-02-26T06:35:03;1.30;67.30
12839;DHT22;6486;51.034;5.262;2023-02-26T06:37:29;1.30;66.70
12839;DHT22;6486;51.034;5.262;2023-02-26T06:39:54;1.30;66.60
12839;DHT22;6486;51.034;5.262;2023-02-26T06:42:20;1.30;66.60
12839;DHT22;6486;51.034;5.262;2023-02-26T06:44:45;1.30;66.60
12839;DHT22;6486;51.034;5.262;2023-02-26T06:47:11;1.30;66.60
12839;DHT22;6486;51.034;5.262;2023-02-26T06:49:36;1.30;66.60
12839;DHT22;6486;51.034;5.262;2023-02-26T06:52:02;1.30;66.50
12839;DHT22;6486;51.034;5.262;2023-02-26T06:54:27;1.30;66.50
12839;DHT22;6486;51.034;5.262;2023-02-26T06:56:53;1.30;66.40
12839;DHT22;6486;51.034;5.262;2023-02-26T06:59:22;1.30;66.40
12839;DHT22;6486;51.034;5.262;2023-02-26T07:01:48;1.30;67.00
12839;DHT22;6486;51.034;5.262;2023-02-26T07:04:13;1.30;66.40
12839;DHT22;6486;51.034;5.262;2023-02-26T07:06:39;1.40;66.40
12839;DHT22;6486;51.034;5.262;2023-02-26T07:09:05;1.40;66.30
12839;DHT22;6486;51.034;5.262;2023-02-26T07:11:30;1.50;66.30
12839;DHT22;6486;51.034;5.262;2023-02-26T07:13:56;1.50;66.20
12839;DHT22;6486;51.034;5.262;2023-02-26T07:16:21;1.50;66.20
12839;DHT22;6486;51.034;5.262;2023-02-26T07:18:47;1.50;66.20
12839;DHT22;6486;51.034;5.262;2023-02-26T07:21:13;1.50;66.20
12839;DHT22;6486;51.034;5.262;2023-02-26T07:23:38;1.60;66.10
12839;DHT22;6486;51.034;5.262;2023-02-26T07:26:04;1.60;66.80
12839;DHT22;6486;51.034;5.262;2023-02-26T07:28:29;1.60;66.00
12839;DHT22;6486;51.034;5.262;2023-02-26T07:30:56;1.70;65.90
12839;DHT22;6486;51.034;5.262;2023-02-26T07:33:22;1.80;65.90
12839;DHT22;6486;51.034;5.262;2023-02-26T07:35:47;1.80;65.70
12839;DHT22;6486;51.034;5.262;2023-02-26T07:38:13;1.90;65.60
12839;DHT22;6486;51.034;5.262;2023-02-26T07:40:39;1.90;65.60
12839;DHT22;6486;51.034;5.262;2023-02-26T07:43:05;2.00;65.50
12839;DHT22;6486;51.034;5.262;2023-02-26T07:45:30;2.00;65.40
12839;DHT22;6486;51.034;5.262;2023-02-26T07:47:56;2.10;65.40
12839;DHT22;6486;51.034;5.262;2023-02-26T07:50:21;2.10;65.30
12839;DHT22;6486;51.034;5.262;2023-02-26T07:52:51;2.20;65.20
12839;DHT22;6486;51.034;5.262;2023-02-26T07:55:17;2.30;65.20
12839;DHT22;6486;51.034;5.262;2023-02-26T07:57:42;2.30;65.00
12839;DHT22;6486;51.034;5.262;2023-02-26T08:00:09;2.40;64.90
12839;DHT22;6486;51.034;5.262;2023-02-26T08:02:35;2.50;64.70
12839;DHT22;6486;51.034;5.262;2023-02-26T08:05:00;2.50;64.60
12839;DHT22;6486;51.034;5.262;2023-02-26T08:07:26;2.60;64.50
12839;DHT22;6486;51.034;5.262;2023-02-26T08:09:51;2.60;64.30
12839;DHT22;6486;51.034;5.262;2023-02-26T08:12:17;2.70;64.20
12839;DHT22;6486;51.034;5.262;2023-02-26T08:14:43;2.70;63.90
12839;DHT22;6486;51.034;5.262;2023-02-26T08:17:08;2.80;63.90
12839;DHT22;6486;51.034;5.262;2023-02-26T08:19:34;2.90;63.80
12839;DHT22;6486;51.034;5.262;2023-02-26T08:22:00;2.90;63.70
12839;DHT22;6486;51.034;5.262;2023-02-26T08:24:26;3.00;63.60
12839;DHT22;6486;51.034;5.262;2023-02-26T08:26:51;3.10;63.60
12839;DHT22;6486;51.034;5.262;2023-02-26T08:29:17;3.20;63.70
12839;DHT22;6486;51.034;5.262;2023-02-26T08:31:43;3.30;63.60
12839;DHT22;6486;51.034;5.262;2023-02-26T08:34:09;3.40;63.40
12839;DHT22;6486;51.034;5.262;2023-02-26T08:36:34;3.50;63.10
12839;DHT22;6486;51.034;5.262;2023-02-26T08:39:00;3.50;62.80
12839;DHT22;6486;51.034;5.262;2023-02-26T08:41:26;3.60;62.80
12839;DHT22;6486;51.034;5.262;2023-02-26T08:43:54;3.70;62.80
12839;DHT22;6486;51.034;5.262;2023-02-26T08:46:20;3.70;62.70
12839;DHT22;6486;51.034;5.262;2023-02-26T08:48:45;3.80;62.60
12839;DHT22;6486;51.034;5.262;2023-02-26T08:51:11;3.90;62.40
12839;DHT22;6486;51.034;5.262;2023-02-26T08:53:37;4.00;62.20
12839;DHT22;6486;51.034;5.262;2023-02-26T08:56:04;4.00;62.00
12839;DHT22;6486;51.034;5.262;2023-02-26T08:58:30;4.10;62.00
12839;DHT22;6486;51.034;5.262;2023-02-26T09:00:56;4.10;61.80
12839;DHT22;6486;51.034;5.262;2023-02-26T09:03:21;4.20;61.90
12839;DHT22;6486;51.034;5.262;2023-02-26T09:05:47;4.30;61.90
12839;DHT22;6486;51.034;5.262;2023-02-26T09:08:12;4.40;61.70
12839;DHT22;6486;51.034;5.262;2023-02-26T09:10:40;4.50;61.50
12839;DHT22;6486;51.034;5.262;2023-02-26T09:13:06;4.60;61.20
12839;DHT22;6486;51.034;5.262;2023-02-26T09:15:32;4.70;61.00
12839;DHT22;6486;51.034;5.262;2023-02-26T09:17:58;4.80;61.10
12839;DHT22;6486;51.034;5.262;2023-02-26T09:20:23;4.80;61.00
12839;DHT22;6486;51.034;5.262;2023-02-26T09:22:49;4.90;61.00
12839;DHT22;6486;51.034;5.262;2023-02-26T09:25:15;5.00;60.80
12839;DHT22;6486;51.034;5.262;2023-02-26T09:27:40;5.10;60.70
12839;DHT22;6486;51.034;5.262;2023-02-26T09:30:06;5.20;60.50
12839;DHT22;6486;51.034;5.262;2023-02-26T09:32:32;5.30;60.40
12839;DHT22;6486;51.034;5.262;2023-02-26T09:34:58;5.30;60.10
12839;DHT22;6486;51.034;5.262;2023-02-26T09:37:24;5.30;60.00
12839;DHT22;6486;51.034;5.262;2023-02-26T09:39:49;5.40;60.00
12839;DHT22;6486;51.034;5.262;2023-02-26T09:42:47;5.50;59.90
12839;DHT22;6486;51.034;5.262;2023-02-26T09:45:35;5.50;60.00
12839;DHT22;6486;51.034;5.262;2023-02-26T09:48:04;5.70;59.90
12839;DHT22;6486;51.034;5.262;2023-02-26T09:50:40;5.80;59.80
12839;DHT22;6486;51.034;5.262;2023-02-26T09:55:41;5.80;59.60
12839;DHT22;6486;51.034;5.262;2023-02-26T10:01:08;5.90;59.20
12839;DHT22;6486;51.034;5.262;2023-02-26T10:06:48;6.00;58.60
12839;DHT22;6486;51.034;5.262;2023-02-26T10:11:51;6.00;58.20
12839;DHT22;6486;51.034;5.262;2023-02-26T10:14:31;6.00;58.30
12839;DHT22;6486;51.034;5.262;2023-02-26T10:17:18;6.10;58.40
12839;DHT22;6486;51.034;5.262;2023-02-26T10:19:48;6.10;58.30
12839;DHT22;6486;51.034;5.262;2023-02-26T10:24:56;6.20;57.80
12839;DHT22;6486;51.034;5.262;2023-02-26T10:30:29;5.90;57.20
12839;DHT22;6486;51.034;5.262;2023-02-26T10:35:55;5.90;57.00
12839;DHT22;6486;51.034;5.262;2023-02-26T10:38:29;6.10;56.70
12839;DHT22;6486;51.034;5.262;2023-02-26T10:41:07;6.00;56.70
12839;DHT22;6486;51.034;5.262;2023-02-26T10:47:00;6.10;56.50
12839;DHT22;6486;51.034;5.262;2023-02-26T10:49:57;6.40;56.40
12839;DHT22;6486;51.034;5.262;2023-02-26T10:52:27;6.60;56.20
12839;DHT22;6486;51.034;5.262;2023-02-26T10:57:27;7.00;56.10
12839;DHT22;6486;51.034;5.262;2023-02-26T10:59:54;7.20;56.00
12839;DHT22;6486;51.034;5.262;2023-02-26T11:02:36;7.40;55.50
12839;DHT22;6486;51.034;5.262;2023-02-26T11:05:04;7.50;55.00
12839;DHT22;6486;51.034;5.262;2023-02-26T11:07:31;7.60;54.20
12839;DHT22;6486;51.034;5.262;2023-02-26T11:09:58;7.70;53.90
12839;DHT22;6486;51.034;5.262;2023-02-26T11:12:25;7.80;53.40
12839;DHT22;6486;51.034;5.262;2023-02-26T11:14:51;8.00;53.40
12839;DHT22;6486;51.034;5.262;2023-02-26T11:17:22;8.00;53.80
12839;DHT22;6486;51.034;5.262;2023-02-26T11:20:12;8.10;52.90
12839;DHT22;6486;51.034;5.262;2023-02-26T11:22:45;8.20;52.70
12839;DHT22;6486;51.034;5.262;2023-02-26T11:25:22;8.10;52.20
12839;DHT22;6486;51.034;5.262;2023-02-26T11:27:54;7.80;51.70
12839;DHT22;6486;51.034;5.262;2023-02-26T11:30:25;7.60;51.70
12839;DHT22;6486;51.034;5.262;2023-02-26T11:32:53;7.30;51.50
12839;DHT22;6486;51.034;5.262;2023-02-26T11:35:23;7.20;51.80
12839;DHT22;6486;51.034;5.262;2023-02-26T11:37:52;7.20;51.80
12839;DHT22;6486;51.034;5.262;2023-02-26T11:40:25;7.00;51.50
12839;DHT22;6486;51.034;5.262;2023-02-26T11:42:56;7.20;51.90
12839;DHT22;6486;51.034;5.262;2023-02-26T11:45:23;7.40;51.70
12839;DHT22;6486;51.034;5.262;2023-02-26T11:47:59;7.60;51.60
12839;DHT22;6486;51.034;5.262;2023-02-26T11:50:27;7.80;51.50
12839;DHT22;6486;51.034;5.262;2023-02-26T11:52:55;8.00;51.20
12839;DHT22;6486;51.034;5.262;2023-02-26T11:55:28;8.20;51.30
12839;DHT22;6486;51.034;5.262;2023-02-26T11:57:55;8.30;51.10
12839;DHT22;6486;51.034;5.262;2023-02-26T12:00:36;8.50;50.80
12839;DHT22;6486;51.034;5.262;2023-02-26T12:03:06;8.60;50.90
12839;DHT22;6486;51.034;5.262;2023-02-26T12:05:34;8.60;50.20
12839;DHT22;6486;51.034;5.262;2023-02-26T12:08:02;8.60;50.10
12839;DHT22;6486;51.034;5.262;2023-02-26T12:14:03;8.50;49.70
12839;DHT22;6486;51.034;5.262;2023-02-26T12:19:42;8.70;49.40
12839;DHT22;6486;51.034;5.262;2023-02-26T12:35:48;9.10;48.70
12839;DHT22;6486;51.034;5.262;2023-02-26T13:03:08;9.80;47.80
12839;DHT22;6486;51.034;5.262;2023-02-26T13:08:07;10.00;46.40
12839;DHT22;6486;51.034;5.262;2023-02-26T13:10:51;10.10;45.10
12839;DHT22;6486;51.034;5.262;2023-02-26T13:16:12;9.70;45.40
12839;DHT22;6486;51.034;5.262;2023-02-26T13:19:05;9.50;45.20
12839;DHT22;6486;51.034;5.262;2023-02-26T13:21:38;9.20;45.30
12839;DHT22;6486;51.034;5.262;2023-02-26T13:24:21;9.00;45.20
12839;DHT22;6486;51.034;5.262;2023-02-26T13:26:50;8.60;45.00
12839;DHT22;6486;51.034;5.262;2023-02-26T13:34:32;8.40;46.20
12839;DHT22;6486;51.034;5.262;2023-02-26T13:36:59;8.50;46.30
12839;DHT22;6486;51.034;5.262;2023-02-26T13:39:40;8.60;46.20
12839;DHT22;6486;51.034;5.262;2023-02-26T13:42:26;8.60;46.30
12839;DHT22;6486;51.034;5.262;2023-02-26T13:45:15;8.70;46.40
12839;DHT22;6486;51.034;5.262;2023-02-26T13:47:50;8.70;46.40
12839;DHT22;6486;51.034;5.262;2023-02-26T13:55:50;8.80;45.40
12839;DHT22;6486;51.034;5.262;2023-02-26T13:58:33;8.60;44.70
12839;DHT22;6486;51.034;5.262;2023-02-26T14:01:03;8.50;44.80
12839;DHT22;6486;51.034;5.262;2023-02-26T14:03:31;8.50;45.10
12839;DHT22;6486;51.034;5.262;2023-02-26T14:08:53;8.40;45.40
12839;DHT22;6486;51.034;5.262;2023-02-26T14:19:36;8.80;44.80
12839;DHT22;6486;51.034;5.262;2023-02-26T14:25:29;9.10;44.80
12839;DHT22;6486;51.034;5.262;2023-02-26T14:28:17;9.20;44.60
12839;DHT22;6486;51.034;5.262;2023-02-26T14:30:48;9.20;44.10
12839;DHT22;6486;51.034;5.262;2023-02-26T14:33:16;9.10;43.80
12839;DHT22;6486;51.034;5.262;2023-02-26T14:35:45;9.10;43.80
12839;DHT22;6486;51.034;5.262;2023-02-26T14:38:17;9.10;43.70
12839;DHT22;6486;51.034;5.262;2023-02-26T14:40:51;9.10;43.10
12839;DHT22;6486;51.034;5.262;2023-02-26T14:43:33;9.20;43.90
12839;DHT22;6486;51.034;5.262;2023-02-26T14:46:01;9.20;43.80
12839;DHT22;6486;51.034;5.262;2023-02-26T14:48:28;9.40;43.80
12839;DHT22;6486;51.034;5.262;2023-02-26T14:56:22;9.90;43.10
12839;DHT22;6486;51.034;5.262;2023-02-26T14:59:42;10.20;42.70
12839;DHT22;6486;51.034;5.262;2023-02-26T15:04:47;11.00;42.00
12839;DHT22;6486;51.034;5.262;2023-02-26T15:10:02;11.80;41.00
12839;DHT22;6486;51.034;5.262;2023-02-26T15:16:06;12.70;39.20
12839;DHT22;6486;51.034;5.262;2023-02-26T15:24:00;13.70;39.50
12839;DHT22;6486;51.034;5.262;2023-02-26T15:26:34;14.10;39.80
12839;DHT22;6486;51.034;5.262;2023-02-26T15:29:03;14.70;39.50
12839;DHT22;6486;51.034;5.262;2023-02-26T15:31:35;14.90;38.50
12839;DHT22;6486;51.034;5.262;2023-02-26T15:34:02;15.30;37.80
12839;DHT22;6486;51.034;5.262;2023-02-26T15:36:29;15.90;35.80
12839;DHT22;6486;51.034;5.262;2023-02-26T15:38:58;17.00;34.60
12839;DHT22;6486;51.034;5.262;2023-02-26T15:41:26;18.50;32.50
12839;DHT22;6486;51.034;5.262;2023-02-26T15:44:05;20.10;31.20
12839;DHT22;6486;51.034;5.262;2023-02-26T15:46:35;21.40;29.80
12839;DHT22;6486;51.034;5.262;2023-02-26T15:49:07;20.20;29.40
12839;DHT22;6486;51.034;5.262;2023-02-26T15:51:36;18.20;29.40
12839;DHT22;6486;51.034;5.262;2023-02-26T15:54:03;16.50;30.50
12839;DHT22;6486;51.034;5.262;2023-02-26T15:56:35;15.10;31.00
12839;DHT22;6486;51.034;5.262;2023-02-26T15:59:12;13.90;32.00
12839;DHT22;6486;51.034;5.262;2023-02-26T16:01:41;12.90;32.70
12839;DHT22;6486;51.034;5.262;2023-02-26T16:04:15;12.10;33.40
12839;DHT22;6486;51.034;5.262;2023-02-26T16:06:44;11.40;34.50
12839;DHT22;6486;51.034;5.262;2023-02-26T16:09:18;10.80;34.40
12839;DHT22;6486;51.034;5.262;2023-02-26T16:11:45;10.20;34.80
12839;DHT22;6486;51.034;5.262;2023-02-26T16:14:17;9.80;36.60
12839;DHT22;6486;51.034;5.262;2023-02-26T16:16:49;9.40;37.20
12839;DHT22;6486;51.034;5.262;2023-02-26T16:19:46;9.10;37.90
12839;DHT22;6486;51.034;5.262;2023-02-26T16:24:45;8.70;38.90
12839;DHT22;6486;51.034;5.262;2023-02-26T16:27:13;8.50;39.30
12839;DHT22;6486;51.034;5.262;2023-02-26T16:29:49;8.30;39.80
12839;DHT22;6486;51.034;5.262;2023-02-26T16:32:16;8.10;40.10
12839;DHT22;6486;51.034;5.262;2023-02-26T16:34:50;8.00;40.50
12839;DHT22;6486;51.034;5.262;2023-02-26T16:40:10;7.70;41.10
12839;DHT22;6486;51.034;5.262;2023-02-26T16:42:51;7.60;41.50
12839;DHT22;6486;51.034;5.262;2023-02-26T16:50:41;7.30;42.60
12839;DHT22;6486;51.034;5.262;2023-02-26T16:53:12;7.20;42.80
12839;DHT22;6486;51.034;5.262;2023-02-26T16:55:39;7.10;43.00
12839;DHT22;6486;51.034;5.262;2023-02-26T16:58:11;7.10;43.20
12839;DHT22;6486;51.034;5.262;2023-02-26T17:00:38;7.00;43.50
12839;DHT22;6486;51.034;5.262;2023-02-26T17:03:20;6.90;43.80
12839;DHT22;6486;51.034;5.262;2023-02-26T17:08:33;6.80;44.30
12839;DHT22;6486;51.034;5.262;2023-02-26T17:11:01;6.70;44.50
12839;DHT22;6486;51.034;5.262;2023-02-26T17:13:30;6.70;44.80
12839;DHT22;6486;51.034;5.262;2023-02-26T17:16:02;6.60;45.00
12839;DHT22;6486;51.034;5.262;2023-02-26T17:18:29;6.50;45.30
12839;DHT22;6486;51.034;5.262;2023-02-26T17:20:55;6.40;45.40
12839;DHT22;6486;51.034;5.262;2023-02-26T17:23:25;6.40;45.60
12839;DHT22;6486;51.034;5.262;2023-02-26T17:25:54;6.30;45.70
12839;DHT22;6486;51.034;5.262;2023-02-26T17:28:26;6.30;45.90
12839;DHT22;6486;51.034;5.262;2023-02-26T17:30:52;6.20;46.10
12839;DHT22;6486;51.034;5.262;2023-02-26T17:33:19;6.10;46.20
12839;DHT22;6486;51.034;5.262;2023-02-26T17:35:45;6.10;46.40
12839;DHT22;6486;51.034;5.262;2023-02-26T17:38:12;6.00;46.60
12839;DHT22;6486;51.034;5.262;2023-02-26T17:40:39;6.00;46.80
12839;DHT22;6486;51.034;5.262;2023-02-26T17:43:05;5.90;46.90
12839;DHT22;6486;51.034;5.262;2023-02-26T17:45:33;5.90;47.00
12839;DHT22;6486;51.034;5.262;2023-02-26T17:47:59;5.80;47.20
12839;DHT22;6486;51.034;5.262;2023-02-26T17:53:04;5.80;47.40
12839;DHT22;6486;51.034;5.262;2023-02-26T17:55:30;5.70;47.40
12839;DHT22;6486;51.034;5.262;2023-02-26T17:57:57;5.70;47.50
12839;DHT22;6486;51.034;5.262;2023-02-26T18:00:23;5.70;47.60
12839;DHT22;6486;51.034;5.262;2023-02-26T18:02:49;5.60;47.70
12839;DHT22;6486;51.034;5.262;2023-02-26T18:05:16;5.50;47.80
12839;DHT22;6486;51.034;5.262;2023-02-26T18:07:44;5.50;48.00
12839;DHT22;6486;51.034;5.262;2023-02-26T18:10:21;5.50;48.20
12839;DHT22;6486;51.034;5.262;2023-02-26T18:12:47;5.40;48.20
12839;DHT22;6486;51.034;5.262;2023-02-26T18:15:13;5.40;48.20
12839;DHT22;6486;51.034;5.262;2023-02-26T18:17:39;5.40;48.30
12839;DHT22;6486;51.034;5.262;2023-02-26T18:20:06;5.30;49.00
12839;DHT22;6486;51.034;5.262;2023-02-26T18:22:33;5.30;48.50
12839;DHT22;6486;51.034;5.262;2023-02-26T18:24:59;5.20;48.60
12839;DHT22;6486;51.034;5.262;2023-02-26T18:27:25;5.20;48.70
12839;DHT22;6486;51.034;5.262;2023-02-26T18:29:52;5.20;48.90
12839;DHT22;6486;51.034;5.262;2023-02-26T18:32:20;5.10;49.00
12839;DHT22;6486;51.034;5.262;2023-02-26T18:34:47;5.00;49.10
12839;DHT22;6486;51.034;5.262;2023-02-26T18:37:17;5.00;49.90
12839;DHT22;6486;51.034;5.262;2023-02-26T18:39:43;5.00;49.30
12839;DHT22;6486;51.034;5.262;2023-02-26T18:42:27;4.90;49.50
12839;DHT22;6486;51.034;5.262;2023-02-26T18:44:53;4.90;49.60
12839;DHT22;6486;51.034;5.262;2023-02-26T18:47:22;4.90;49.80
12839;DHT22;6486;51.034;5.262;2023-02-26T18:49:49;4.80;49.90
12839;DHT22;6486;51.034;5.262;2023-02-26T18:52:15;4.80;50.10
12839;DHT22;6486;51.034;5.262;2023-02-26T18:54:41;4.80;50.20
12839;DHT22;6486;51.034;5.262;2023-02-26T18:57:08;4.70;50.20
12839;DHT22;6486;51.034;5.262;2023-02-26T18:59:34;4.70;50.40
12839;DHT22;6486;51.034;5.262;2023-02-26T19:02:01;4.70;50.50
12839;DHT22;6486;51.034;5.262;2023-02-26T19:04:27;4.60;50.50